Time;durP1;ratioP1;P1;durP2;ratioP2;P2;SDS_P1;SDS_P2;PMS_P1;PMS_P2;Temp;Humidity;BMP_temperature;BMP_pressure;BME280_temperature;BME280_humidity;BME280_pressure;Samples;Min_cycle;Max_cycle;Signal;HPM_P1;HPM_P2
2022/12/04 00:00:10;;;;;;;15.63;10.10;;;1.10;99.90;;;;;;5095066;28;20052;-63
2022/12/04 00:02:37;;;;;;;15.18;9.40;;;1.10;99.90;;;;;;5098868;28;20123;-63
2022/12/04 00:05:05;;;;;;;23.27;14.45;;;1.00;99.90;;;;;;5092348;28;20058;-63
2022/12/04 00:07:32;;;;;;;17.77;12.82;;;1.00;99.90;;;;;;5098763;28;20050;-63
2022/12/04 00:09:59;;;;;;;14.50;10.18;;;1.00;99.90;;;;;;5097382;28;20043;-63
2022/12/04 00:12:26;;;;;;;18.92;10.50;;;1.00;99.90;;;;;;5098138;28;20047;-63
2022/12/04 00:14:53;;;;;;;16.35;10.48;;;1.00;99.90;;;;;;5096084;28;20063;-67
2022/12/04 00:17:40;;;;;;;14.90;11.57;;;1.00;99.90;;;;;;5095110;28;20493;-64
2022/12/04 00:20:08;;;;;;;20.70;10.65;;;1.00;99.90;;;;;;5100164;28;20159;-62
2022/12/04 00:22:34;;;;;;;15.50;10.45;;;1.00;99.90;;;;;;5099911;28;20052;-63
2022/12/04 00:25:01;;;;;;;21.42;11.57;;;1.00;99.90;;;;;;5098205;28;20048;-62
2022/12/04 00:27:29;;;;;;;17.98;10.02;;;1.00;99.90;;;;;;5099265;28;20562;-62
2022/12/04 00:29:56;;;;;;;16.13;11.57;;;1.00;99.90;;;;;;5098523;28;20101;-63
2022/12/04 00:32:23;;;;;;;14.68;10.30;;;1.00;99.90;;;;;;5092951;28;20051;-63
2022/12/04 00:34:53;;;;;;;18.10;11.18;;;1.00;99.90;;;;;;5103374;28;20398;-63
2022/12/04 00:37:19;;;;;;;15.90;11.23;;;0.90;99.90;;;;;;5104990;28;20173;-62
2022/12/04 00:39:46;;;;;;;17.48;10.50;;;0.90;99.90;;;;;;5106946;28;20074;-62
2022/12/04 00:42:13;;;;;;;15.15;10.48;;;0.90;99.90;;;;;;5102084;28;20066;-63
2022/12/04 00:44:40;;;;;;;16.25;9.52;;;0.90;99.90;;;;;;5105354;27;20401;-64
2022/12/04 00:47:07;;;;;;;17.38;11.43;;;0.80;99.90;;;;;;5108138;28;20043;-62
2022/12/04 00:49:34;;;;;;;17.45;10.85;;;0.80;99.90;;;;;;5101404;28;20048;-63
2022/12/04 00:52:01;;;;;;;14.60;11.18;;;0.80;99.90;;;;;;5105984;27;20040;-63
2022/12/04 00:54:29;;;;;;;14.52;10.40;;;0.80;99.90;;;;;;5103010;28;20469;-64
2022/12/04 00:56:56;;;;;;;19.92;11.20;;;0.80;99.90;;;;;;5101298;28;20116;-64
2022/12/04 00:59:23;;;;;;;15.23;9.82;;;0.70;99.90;;;;;;5109929;27;20448;-64
2022/12/04 01:01:50;;;;;;;14.25;9.57;;;0.70;99.90;;;;;;5102115;28;20098;-69
2022/12/04 01:04:17;;;;;;;17.25;9.48;;;0.70;99.90;;;;;;5107009;28;20405;-62
2022/12/04 01:06:45;;;;;;;14.82;10.52;;;0.70;99.90;;;;;;5079793;27;20179;-61
2022/12/04 01:09:12;;;;;;;14.70;10.05;;;0.70;99.90;;;;;;5103076;28;20039;-63
2022/12/04 01:11:42;;;;;;;15.32;10.07;;;0.70;99.90;;;;;;5103641;28;20855;-62
2022/12/04 01:14:09;;;;;;;15.38;11.75;;;0.70;99.90;;;;;;5107275;28;20074;-63
2022/12/04 01:16:38;;;;;;;15.43;10.52;;;0.70;99.90;;;;;;5102643;27;20119;-63
2022/12/04 01:19:08;;;;;;;19.10;10.98;;;0.70;99.90;;;;;;5105877;27;20050;-63
2022/12/04 01:21:36;;;;;;;14.05;11.40;;;0.70;99.90;;;;;;5107545;28;20415;-63
2022/12/04 01:24:04;;;;;;;15.38;10.25;;;0.70;99.90;;;;;;5101204;28;20668;-63
2022/12/04 01:26:31;;;;;;;17.83;10.40;;;0.70;99.90;;;;;;5099374;27;20052;-64
2022/12/04 01:28:58;;;;;;;15.30;9.40;;;0.70;99.90;;;;;;5109606;28;20602;-63
2022/12/04 01:31:25;;;;;;;12.77;9.00;;;0.70;99.90;;;;;;5099602;28;20482;-64
2022/12/04 01:33:53;;;;;;;14.13;9.82;;;0.70;99.90;;;;;;5106359;28;20052;-62
2022/12/04 01:36:22;;;;;;;17.17;10.90;;;0.70;99.90;;;;;;5107092;27;20086;-64
2022/12/04 01:38:49;;;;;;;16.98;10.60;;;0.70;99.90;;;;;;5106166;28;20058;-63
2022/12/04 01:41:21;;;;;;;15.77;9.85;;;0.70;99.90;;;;;;5106650;28;20406;-64
2022/12/04 01:44:08;;;;;;;14.57;9.25;;;0.70;99.90;;;;;;5103188;28;20440;-66
2022/12/04 01:46:35;;;;;;;14.63;9.68;;;0.70;99.90;;;;;;5098202;28;20048;-63
2022/12/04 01:49:03;;;;;;;15.38;9.93;;;0.70;99.90;;;;;;5099316;28;20131;-63
2022/12/04 01:51:34;;;;;;;17.73;9.90;;;0.70;99.90;;;;;;5082629;28;20135;-62
2022/12/04 01:54:09;;;;;;;18.50;10.10;;;0.70;99.90;;;;;;5098482;28;20048;-61
2022/12/04 01:56:42;;;;;;;13.15;9.32;;;0.70;99.90;;;;;;5096435;28;20082;-63
2022/12/04 01:59:11;;;;;;;15.65;9.43;;;0.60;99.90;;;;;;5101446;28;20040;-62
2022/12/04 02:02:02;;;;;;;18.35;10.25;;;0.60;99.90;;;;;;5103342;28;20127;-64
2022/12/04 02:04:32;;;;;;;20.85;11.95;;;0.60;99.90;;;;;;5101723;28;20051;-62
2022/12/04 02:06:59;;;;;;;13.77;9.43;;;0.60;99.90;;;;;;5105539;27;20063;-63
2022/12/04 02:09:26;;;;;;;17.15;10.55;;;0.60;99.90;;;;;;5098129;28;20296;-62
2022/12/04 02:12:07;;;;;;;14.50;9.30;;;0.60;99.90;;;;;;5103865;27;20146;-66
2022/12/04 02:14:43;;;;;;;16.60;10.38;;;0.60;99.90;;;;;;5101194;28;20044;-62
2022/12/04 02:17:35;;;;;;;14.45;9.45;;;0.60;99.90;;;;;;5102220;28;20043;-62
2022/12/04 02:20:20;;;;;;;14.68;10.45;;;0.60;99.90;;;;;;5087417;28;20053;-63
2022/12/04 02:23:22;;;;;;;14.13;10.45;;;0.60;99.90;;;;;;5088470;27;20431;-62
2022/12/04 02:26:18;;;;;;;14.52;9.52;;;0.60;99.90;;;;;;5109591;27;20048;-67
2022/12/04 02:29:01;;;;;;;15.98;9.10;;;0.60;99.90;;;;;;5099818;27;20567;-63
2022/12/04 02:31:50;;;;;;;15.68;10.80;;;0.50;99.90;;;;;;5100334;28;20640;-63
2022/12/04 02:34:41;;;;;;;14.07;9.77;;;0.50;99.90;;;;;;5096821;28;20142;-66
2022/12/04 02:37:14;;;;;;;12.27;9.45;;;0.50;99.90;;;;;;5097330;28;20135;-63
2022/12/04 02:39:50;;;;;;;14.45;10.05;;;0.50;99.90;;;;;;5103484;28;20054;-63
2022/12/04 02:42:29;;;;;;;13.10;9.68;;;0.50;99.90;;;;;;5100815;28;20055;-63
2022/12/04 02:45:00;;;;;;;15.73;10.40;;;0.50;99.90;;;;;;5099365;27;20040;-64
2022/12/04 02:47:28;;;;;;;20.52;11.35;;;0.50;99.90;;;;;;5079764;28;20173;-63
2022/12/04 02:49:59;;;;;;;15.00;10.30;;;0.50;99.90;;;;;;5103410;28;20039;-63
2022/12/04 02:52:36;;;;;;;16.50;10.52;;;0.50;99.90;;;;;;5098853;28;20089;-64
2022/12/04 02:55:13;;;;;;;15.63;10.77;;;0.50;99.90;;;;;;5098961;28;20575;-64
2022/12/04 02:57:45;;;;;;;15.27;10.90;;;0.50;99.90;;;;;;5102446;28;20143;-62
2022/12/04 03:00:12;;;;;;;20.58;11.88;;;0.50;99.90;;;;;;5096268;28;20108;-62
2022/12/04 03:02:52;;;;;;;14.73;11.13;;;0.50;99.90;;;;;;5083420;28;20117;-64
2022/12/04 03:05:27;;;;;;;17.48;12.98;;;0.50;99.90;;;;;;5095437;28;20051;-63
2022/12/04 03:07:58;;;;;;;14.45;10.85;;;0.50;99.90;;;;;;5100054;28;20040;-67
2022/12/04 03:10:34;;;;;;;22.13;11.93;;;0.50;99.90;;;;;;5103427;28;20112;-62
2022/12/04 03:13:14;;;;;;;18.08;11.57;;;0.60;99.90;;;;;;5098156;28;20074;-64
2022/12/04 03:15:53;;;;;;;18.83;12.27;;;0.50;99.90;;;;;;5099027;28;20052;-62
2022/12/04 03:18:27;;;;;;;17.00;10.85;;;0.50;99.90;;;;;;5100069;28;20401;-64
2022/12/04 03:21:02;;;;;;;17.15;11.43;;;0.50;99.90;;;;;;5099652;28;20122;-62
2022/12/04 03:23:41;;;;;;;13.75;10.63;;;0.60;99.90;;;;;;5094985;28;20071;-65
2022/12/04 03:26:21;;;;;;;19.35;12.10;;;0.60;99.90;;;;;;5098090;28;20052;-63
2022/12/04 03:28:54;;;;;;;18.83;12.35;;;0.60;99.90;;;;;;5104406;27;20240;-63
2022/12/04 03:31:36;;;;;;;17.00;12.60;;;0.50;99.90;;;;;;5101492;28;20064;-62
2022/12/04 03:34:06;;;;;;;16.77;11.18;;;0.60;99.90;;;;;;5099789;28;20069;-63
2022/12/04 03:36:51;;;;;;;17.10;12.70;;;0.60;99.90;;;;;;5103845;27;20146;-64
2022/12/04 03:39:23;;;;;;;15.52;9.52;;;0.60;99.90;;;;;;5078588;28;20116;-63
2022/12/04 03:42:02;;;;;;;15.02;10.55;;;0.60;99.90;;;;;;5097010;28;20064;-64
2022/12/04 03:44:38;;;;;;;16.40;9.73;;;0.60;99.90;;;;;;5076756;28;20418;-62
2022/12/04 03:47:19;;;;;;;13.57;9.55;;;0.60;99.90;;;;;;5101304;28;20040;-62
2022/12/04 03:50:00;;;;;;;14.32;10.15;;;0.60;99.90;;;;;;5098565;28;20043;-64
2022/12/04 03:52:33;;;;;;;12.80;9.82;;;0.60;99.90;;;;;;5103424;28;20076;-62
2022/12/04 03:55:20;;;;;;;15.55;11.98;;;0.60;99.90;;;;;;5096469;28;20077;-67
2022/12/04 03:57:49;;;;;;;15.57;11.15;;;0.60;99.90;;;;;;5098567;28;20115;-62
2022/12/04 04:00:19;;;;;;;15.83;10.97;;;0.60;99.90;;;;;;5100319;28;20094;-61
2022/12/04 04:02:59;;;;;;;14.13;11.63;;;0.60;99.90;;;;;;5100904;28;20391;-63
2022/12/04 04:05:29;;;;;;;14.85;10.05;;;0.60;99.90;;;;;;5096182;28;20086;-62
2022/12/04 04:08:24;;;;;;;14.88;10.93;;;0.60;99.90;;;;;;5103075;28;20042;-61
2022/12/04 04:10:49;;;;;;;14.95;9.93;;;0.60;99.90;;;;;;5099178;28;20051;-62
2022/12/04 04:24:43;;;;;;;18.98;12.00;;;0.60;99.90;;;;;;5098657;28;20089;-63
2022/12/04 04:27:10;;;;;;;18.52;11.27;;;0.60;99.90;;;;;;5101135;28;20436;-64
2022/12/04 04:29:38;;;;;;;18.13;12.02;;;0.60;99.90;;;;;;5101959;28;20361;-62
2022/12/04 04:32:13;;;;;;;18.52;13.55;;;0.60;99.90;;;;;;5099121;28;20832;-64
2022/12/04 04:34:59;;;;;;;17.67;11.40;;;0.60;99.90;;;;;;5094570;28;20053;-63
2022/12/04 04:38:09;;;;;;;17.98;11.80;;;0.60;99.90;;;;;;5103240;28;20047;-62
2022/12/04 04:40:57;;;;;;;17.25;10.63;;;0.60;99.90;;;;;;5071670;28;20048;-62
2022/12/04 04:43:31;;;;;;;15.50;12.07;;;0.60;99.90;;;;;;5101482;28;20053;-62
2022/12/04 04:46:18;;;;;;;17.63;12.52;;;0.60;99.90;;;;;;5099723;28;20075;-62
2022/12/04 04:48:53;;;;;;;15.93;11.65;;;0.60;99.90;;;;;;5095978;28;20143;-63
2022/12/04 04:51:20;;;;;;;17.45;12.05;;;0.60;99.90;;;;;;5103124;28;20425;-63
2022/12/04 04:53:52;;;;;;;15.45;11.02;;;0.60;99.90;;;;;;5099725;28;20048;-63
2022/12/04 04:56:20;;;;;;;13.65;10.75;;;0.60;99.90;;;;;;5099306;28;20108;-65
2022/12/04 04:58:47;;;;;;;19.77;12.25;;;0.60;99.90;;;;;;5099743;28;20166;-62
2022/12/04 05:01:18;;;;;;;15.77;11.93;;;0.60;99.90;;;;;;5101880;28;20055;-62
2022/12/04 05:03:45;;;;;;;17.95;11.57;;;0.60;99.90;;;;;;5098183;28;20173;-66
2022/12/04 05:06:12;;;;;;;19.45;12.05;;;0.60;99.90;;;;;;5092408;28;20580;-62
2022/12/04 05:08:39;;;;;;;20.92;13.52;;;0.60;99.90;;;;;;5097934;28;20105;-64
2022/12/04 05:11:11;;;;;;;16.52;13.38;;;0.60;99.90;;;;;;5102656;28;20113;-62
2022/12/04 05:13:38;;;;;;;16.65;11.90;;;0.60;99.90;;;;;;5098357;28;20044;-62
2022/12/04 05:16:09;;;;;;;18.95;13.55;;;0.60;99.90;;;;;;5100971;28;20065;-64
2022/12/04 05:18:36;;;;;;;19.25;12.68;;;0.60;99.90;;;;;;5100697;28;20126;-62
2022/12/04 05:21:06;;;;;;;23.70;13.90;;;0.60;99.90;;;;;;5099043;28;20131;-62
2022/12/04 05:23:33;;;;;;;19.63;13.60;;;0.60;99.90;;;;;;5101354;28;20127;-66
2022/12/04 05:26:02;;;;;;;23.45;14.88;;;0.60;99.90;;;;;;5103917;28;20067;-62
2022/12/04 05:28:29;;;;;;;20.38;13.23;;;0.60;99.90;;;;;;5095363;28;20075;-62
2022/12/04 05:30:58;;;;;;;16.95;13.38;;;0.60;99.90;;;;;;5103921;28;20546;-63
2022/12/04 05:33:25;;;;;;;17.42;13.70;;;0.50;99.90;;;;;;5103594;28;20134;-63
2022/12/04 05:36:03;;;;;;;16.85;13.30;;;0.60;99.90;;;;;;5107275;27;20062;-65
2022/12/04 05:38:31;;;;;;;30.00;15.30;;;0.60;99.90;;;;;;5094693;28;20043;-64
2022/12/04 05:40:59;;;;;;;18.65;14.75;;;0.60;99.90;;;;;;5097443;28;20047;-62
2022/12/04 05:43:26;;;;;;;25.58;15.77;;;0.50;99.90;;;;;;5101249;28;20170;-64
2022/12/04 05:45:54;;;;;;;22.65;16.33;;;0.50;99.90;;;;;;5102101;28;20040;-63
2022/12/04 05:48:20;;;;;;;20.00;14.35;;;0.50;99.90;;;;;;5097451;28;20054;-63
2022/12/04 05:50:47;;;;;;;20.92;15.52;;;0.50;99.90;;;;;;5098676;28;20079;-63
2022/12/04 05:53:14;;;;;;;21.00;14.88;;;0.50;99.90;;;;;;5103782;28;20067;-63
2022/12/04 05:55:41;;;;;;;23.90;16.75;;;0.60;99.90;;;;;;5104748;28;20155;-64
2022/12/04 05:58:09;;;;;;;21.92;16.17;;;0.50;99.90;;;;;;5086233;28;20599;-61
2022/12/04 06:00:36;;;;;;;19.40;14.55;;;0.50;99.90;;;;;;5097413;27;20556;-62
2022/12/04 06:03:03;;;;;;;21.35;15.10;;;0.60;99.90;;;;;;5096002;28;20042;-62
2022/12/04 06:05:31;;;;;;;19.83;15.50;;;0.50;99.90;;;;;;5100770;28;20139;-63
2022/12/04 06:07:58;;;;;;;22.77;16.35;;;0.50;99.90;;;;;;5105510;28;20138;-63
2022/12/04 06:10:25;;;;;;;20.42;15.60;;;0.50;99.90;;;;;;5105432;28;20063;-63
2022/12/04 06:12:56;;;;;;;18.45;14.13;;;0.50;99.90;;;;;;5102334;27;20087;-65
2022/12/04 06:15:23;;;;;;;21.77;15.02;;;0.50;99.90;;;;;;5119355;27;20119;-62
2022/12/04 06:17:50;;;;;;;21.50;15.48;;;0.50;99.90;;;;;;5100150;27;20048;-64
2022/12/04 06:20:17;;;;;;;21.38;14.50;;;0.50;99.90;;;;;;5110114;27;20047;-68
2022/12/04 06:22:44;;;;;;;21.45;16.08;;;0.50;99.90;;;;;;5097227;28;20047;-62
2022/12/04 06:25:11;;;;;;;20.33;13.57;;;0.50;99.90;;;;;;5097357;28;20135;-62
2022/12/04 06:27:38;;;;;;;22.58;15.60;;;0.50;99.90;;;;;;5105272;27;20182;-63
2022/12/04 06:30:05;;;;;;;21.02;14.95;;;0.50;99.90;;;;;;5102223;28;20035;-62
2022/12/04 06:32:32;;;;;;;20.33;14.75;;;0.50;99.90;;;;;;5098802;28;20560;-66
2022/12/04 06:35:00;;;;;;;19.30;16.40;;;0.50;99.90;;;;;;5097596;28;20506;-64
2022/12/04 06:37:27;;;;;;;22.17;16.35;;;0.60;99.90;;;;;;5105317;28;20118;-65
2022/12/04 06:39:54;;;;;;;20.63;15.38;;;0.60;99.90;;;;;;5098831;28;20405;-63
2022/12/04 06:42:23;;;;;;;21.08;16.45;;;0.60;99.90;;;;;;5115886;27;20135;-66
2022/12/04 06:44:50;;;;;;;18.75;15.75;;;0.60;99.90;;;;;;5102392;28;20076;-66
2022/12/04 06:47:17;;;;;;;19.88;16.38;;;0.60;99.90;;;;;;5101660;28;20079;-62
2022/12/04 06:49:47;;;;;;;25.13;16.90;;;0.60;99.90;;;;;;5103043;28;20512;-64
2022/12/04 06:52:14;;;;;;;22.88;16.85;;;0.60;99.90;;;;;;5095102;28;20101;-63
2022/12/04 06:54:41;;;;;;;23.38;15.95;;;0.60;99.90;;;;;;5096262;28;20048;-62
2022/12/04 06:57:08;;;;;;;31.02;20.13;;;0.60;99.90;;;;;;5103155;28;20452;-63
2022/12/04 06:59:35;;;;;;;21.52;16.30;;;0.60;99.90;;;;;;5105846;28;20050;-62
2022/12/04 07:02:02;;;;;;;21.42;16.45;;;0.60;99.90;;;;;;5101982;27;20044;-63
2022/12/04 07:04:29;;;;;;;22.65;17.73;;;0.60;99.90;;;;;;5099672;28;20047;-62
2022/12/04 07:06:56;;;;;;;22.85;17.38;;;0.60;99.90;;;;;;5099662;28;20040;-63
2022/12/04 07:09:23;;;;;;;23.42;16.60;;;0.60;99.90;;;;;;5105493;28;20062;-63
2022/12/04 07:11:50;;;;;;;27.15;17.48;;;0.60;99.90;;;;;;5102330;28;20225;-67
2022/12/04 07:14:17;;;;;;;24.05;18.38;;;0.60;99.90;;;;;;5097324;28;20051;-63
2022/12/04 07:16:43;;;;;;;26.83;17.90;;;0.60;99.90;;;;;;5097930;28;20092;-64
2022/12/04 07:19:12;;;;;;;24.58;16.35;;;0.60;99.90;;;;;;5107263;27;20414;-65
2022/12/04 07:21:40;;;;;;;24.17;16.92;;;0.60;99.90;;;;;;5078450;28;20051;-63
2022/12/04 07:24:12;;;;;;;24.80;16.92;;;0.70;99.90;;;;;;5102394;28;20077;-64
2022/12/04 07:26:38;;;;;;;26.92;15.98;;;0.60;99.90;;;;;;5094832;28;20070;-64
2022/12/04 07:29:05;;;;;;;28.58;18.25;;;0.70;99.90;;;;;;5106380;28;20046;-64
2022/12/04 07:31:32;;;;;;;21.92;16.45;;;0.70;99.90;;;;;;5100308;28;20146;-64
2022/12/04 07:33:59;;;;;;;28.75;18.35;;;0.70;99.90;;;;;;5097556;28;20043;-63
2022/12/04 07:36:26;;;;;;;21.23;16.67;;;0.70;99.90;;;;;;5107482;27;20043;-63
2022/12/04 07:38:55;;;;;;;26.45;18.25;;;0.70;99.90;;;;;;5100536;28;20039;-64
2022/12/04 07:41:22;;;;;;;24.95;16.70;;;0.70;99.90;;;;;;5098816;28;20151;-64
2022/12/04 07:43:48;;;;;;;28.92;18.48;;;0.70;99.90;;;;;;5099011;28;20155;-63
2022/12/04 07:46:21;;;;;;;26.92;16.35;;;0.70;99.90;;;;;;5100248;28;20139;-63
2022/12/04 07:48:48;;;;;;;22.52;16.35;;;0.70;99.90;;;;;;5098858;28;20047;-64
2022/12/04 07:51:24;;;;;;;22.58;18.88;;;0.70;99.90;;;;;;5100793;28;20044;-63
2022/12/04 07:53:52;;;;;;;23.27;16.30;;;0.70;99.90;;;;;;5097596;28;20049;-66
2022/12/04 07:56:19;;;;;;;28.85;19.75;;;0.60;99.90;;;;;;5100520;28;20373;-65
2022/12/04 07:58:47;;;;;;;23.42;16.33;;;0.70;99.90;;;;;;5098233;28;20122;-63
2022/12/04 08:01:18;;;;;;;23.35;17.38;;;0.70;99.90;;;;;;5100267;28;20062;-63
2022/12/04 08:03:48;;;;;;;23.48;17.08;;;0.70;99.90;;;;;;5098255;28;20438;-65
2022/12/04 08:06:20;;;;;;;20.83;17.53;;;0.70;99.90;;;;;;5097526;28;20043;-63
2022/12/04 08:08:48;;;;;;;24.17;16.10;;;0.70;99.90;;;;;;5101142;28;20093;-63
2022/12/04 08:11:17;;;;;;;28.10;17.95;;;0.70;99.90;;;;;;5102619;28;20078;-63
2022/12/04 08:13:45;;;;;;;23.75;16.10;;;0.70;99.90;;;;;;5093127;28;20052;-64
2022/12/04 08:16:13;;;;;;;27.98;18.05;;;0.80;99.90;;;;;;5097857;28;20125;-65
2022/12/04 08:18:45;;;;;;;26.67;18.55;;;0.80;99.90;;;;;;5095426;28;20052;-63
2022/12/04 08:21:15;;;;;;;20.60;17.73;;;0.80;99.90;;;;;;5100168;28;20139;-64
2022/12/04 08:23:43;;;;;;;25.90;17.83;;;0.80;99.90;;;;;;5100977;28;20067;-62
2022/12/04 08:26:11;;;;;;;22.27;15.95;;;0.90;99.90;;;;;;5103131;28;20046;-64
2022/12/04 08:28:39;;;;;;;22.48;15.95;;;0.90;99.90;;;;;;5093133;28;20082;-63
2022/12/04 08:31:20;;;;;;;21.67;16.42;;;0.90;99.90;;;;;;5091434;28;20047;-64
2022/12/04 08:33:49;;;;;;;23.95;16.58;;;0.90;99.90;;;;;;5098336;28;20047;-66
2022/12/04 08:36:19;;;;;;;20.88;17.33;;;1.00;99.90;;;;;;5098402;28;20405;-62
2022/12/04 08:38:47;;;;;;;23.65;15.95;;;1.00;99.90;;;;;;5099335;28;20044;-63
2022/12/04 08:41:17;;;;;;;23.50;16.67;;;1.00;99.90;;;;;;5097895;28;20087;-63
2022/12/04 08:43:44;;;;;;;23.95;14.70;;;1.00;99.90;;;;;;5102639;28;20048;-63
2022/12/04 08:46:15;;;;;;;19.67;14.68;;;1.00;99.90;;;;;;5097472;28;20131;-65
2022/12/04 08:48:43;;;;;;;26.20;16.60;;;1.10;99.90;;;;;;5095821;28;20549;-63
2022/12/04 08:51:25;;;;;;;24.88;16.52;;;1.10;99.90;;;;;;5095117;28;20036;-63
2022/12/04 08:53:57;;;;;;;24.63;16.75;;;1.10;99.90;;;;;;5097413;28;20067;-64
2022/12/04 08:56:25;;;;;;;20.70;15.20;;;1.10;99.90;;;;;;5095231;28;20449;-64
2022/12/04 08:58:53;;;;;;;18.90;14.52;;;1.10;99.90;;;;;;5099568;28;20050;-67
2022/12/04 09:01:20;;;;;;;26.10;15.70;;;1.10;99.90;;;;;;5103307;28;20466;-63
2022/12/04 09:03:48;;;;;;;23.67;14.63;;;1.10;99.90;;;;;;5100712;28;20135;-63
2022/12/04 09:06:15;;;;;;;21.13;14.13;;;1.10;99.90;;;;;;5106595;28;20450;-63
2022/12/04 09:08:42;;;;;;;23.48;14.85;;;1.10;99.90;;;;;;5103348;28;20507;-63
2022/12/04 09:11:16;;;;;;;20.55;14.55;;;1.10;99.90;;;;;;5108896;28;20061;-63
2022/12/04 09:13:44;;;;;;;18.60;13.25;;;1.20;99.90;;;;;;5102359;28;20054;-64
2022/12/04 09:16:14;;;;;;;18.63;13.77;;;1.20;99.90;;;;;;5104598;28;20416;-63
2022/12/04 09:18:42;;;;;;;17.35;13.38;;;1.20;99.90;;;;;;5102898;28;20062;-63
2022/12/04 09:21:11;;;;;;;20.33;13.05;;;1.10;99.90;;;;;;5098596;28;20047;-66
2022/12/04 09:23:39;;;;;;;14.65;12.32;;;1.10;99.90;;;;;;5103558;28;20043;-63
2022/12/04 09:26:25;;;;;;;15.93;12.00;;;1.20;99.90;;;;;;5104515;28;20119;-64
2022/12/04 09:28:53;;;;;;;16.17;12.65;;;1.20;99.90;;;;;;5100451;28;20517;-63
2022/12/04 09:31:21;;;;;;;14.77;10.70;;;1.20;99.90;;;;;;5098847;28;20063;-63
2022/12/04 09:33:48;;;;;;;16.42;11.40;;;1.20;99.90;;;;;;5097698;28;20130;-63
2022/12/04 09:36:15;;;;;;;14.80;11.35;;;1.20;99.90;;;;;;5106545;28;20051;-64
2022/12/04 09:38:47;;;;;;;18.58;11.52;;;1.20;99.90;;;;;;5101465;28;20109;-63
2022/12/04 09:41:17;;;;;;;20.15;11.57;;;1.30;99.90;;;;;;5106505;28;20133;-62
2022/12/04 09:43:54;;;;;;;15.55;11.23;;;1.20;99.90;;;;;;5097621;28;20051;-63
2022/12/04 09:46:32;;;;;;;15.30;12.10;;;1.30;99.90;;;;;;5098323;28;20059;-66
2022/12/04 09:49:03;;;;;;;15.73;10.80;;;1.30;99.90;;;;;;5097498;28;20043;-64
2022/12/04 09:51:34;;;;;;;13.95;10.70;;;1.30;99.90;;;;;;5101449;28;20075;-64
2022/12/04 09:54:17;;;;;;;15.00;10.77;;;1.30;99.90;;;;;;5102450;28;20193;-64
2022/12/04 09:56:52;;;;;;;14.52;12.13;;;1.30;99.90;;;;;;5100346;28;20833;-65
2022/12/04 09:59:28;;;;;;;16.27;12.13;;;1.30;99.90;;;;;;5102457;28;20074;-63
2022/12/04 10:02:26;;;;;;;17.40;11.93;;;1.30;99.90;;;;;;5105506;28;20051;-65
2022/12/04 10:04:54;;;;;;;18.05;11.77;;;1.30;99.90;;;;;;5099701;28;20147;-65
2022/12/04 10:07:49;;;;;;;16.17;12.30;;;1.30;99.90;;;;;;5099129;28;20051;-63
2022/12/04 10:10:28;;;;;;;17.55;13.13;;;1.30;99.90;;;;;;5099283;28;20067;-64
2022/12/04 10:13:13;;;;;;;16.40;12.10;;;1.30;99.90;;;;;;5097622;28;20074;-63
2022/12/04 10:16:03;;;;;;;16.52;12.25;;;1.40;99.90;;;;;;5099989;28;20044;-64
2022/12/04 10:18:30;;;;;;;16.27;12.20;;;1.40;99.90;;;;;;5102444;28;20058;-65
2022/12/04 10:21:12;;;;;;;16.77;11.65;;;1.30;99.90;;;;;;5099812;28;20044;-65
2022/12/04 10:23:57;;;;;;;14.48;12.10;;;1.30;99.90;;;;;;5098563;28;20513;-62
2022/12/04 10:26:30;;;;;;;13.07;10.88;;;1.30;99.90;;;;;;5096700;28;20126;-62
2022/12/04 10:29:02;;;;;;;15.95;11.93;;;1.30;99.90;;;;;;5098586;28;20050;-62
2022/12/04 10:31:31;;;;;;;14.27;11.43;;;1.30;99.90;;;;;;5097585;28;20047;-64
2022/12/04 10:34:12;;;;;;;16.95;12.30;;;1.30;99.90;;;;;;5099796;28;20566;-63
2022/12/04 10:36:41;;;;;;;;;;;1.30;99.90;;;;;;5095367;28;20052;-63
2022/12/04 10:39:40;;;;;;;15.93;12.15;;;1.40;99.90;;;;;;5097160;28;20344;-64
2022/12/04 10:42:15;;;;;;;22.05;14.80;;;1.30;99.90;;;;;;5099264;28;20051;-65
2022/12/04 10:44:42;;;;;;;16.20;12.30;;;1.40;99.90;;;;;;5095416;28;20040;-65
2022/12/04 10:47:12;;;;;;;13.63;11.52;;;1.40;99.90;;;;;;5102714;28;20475;-63
2022/12/04 10:49:39;;;;;;;18.05;12.55;;;1.40;99.90;;;;;;5097944;28;20079;-63
2022/12/04 10:52:09;;;;;;;18.65;14.02;;;1.40;99.90;;;;;;5104512;28;20067;-63
2022/12/04 10:54:59;;;;;;;17.63;13.05;;;1.40;99.90;;;;;;5104224;28;20063;-64
2022/12/04 10:57:38;;;;;;;15.15;12.40;;;1.40;99.90;;;;;;5095001;28;20135;-64
2022/12/04 11:00:25;;;;;;;15.45;11.95;;;1.40;99.90;;;;;;5098283;28;20047;-65
2022/12/04 11:02:54;;;;;;;13.55;11.70;;;1.40;99.90;;;;;;5103258;28;20126;-63
2022/12/04 11:05:29;;;;;;;18.85;13.13;;;1.40;99.90;;;;;;5098135;28;20517;-62
2022/12/04 11:07:58;;;;;;;15.25;11.93;;;1.40;99.90;;;;;;5100549;28;20152;-64
2022/12/04 11:10:42;;;;;;;14.30;12.73;;;1.50;99.90;;;;;;5097758;28;20084;-69
2022/12/04 11:13:11;;;;;;;16.15;12.75;;;1.50;99.90;;;;;;5097078;28;20430;-64
2022/12/04 11:15:48;;;;;;;15.98;14.07;;;1.50;99.90;;;;;;5099652;28;20232;-64
2022/12/04 11:18:24;;;;;;;17.00;13.15;;;1.50;99.90;;;;;;5077475;28;20063;-63
2022/12/04 11:20:58;;;;;;;16.95;12.40;;;1.50;99.90;;;;;;5097759;28;20044;-66
2022/12/04 11:23:30;;;;;;;19.88;13.13;;;1.50;99.90;;;;;;5098149;28;20741;-63
2022/12/04 11:25:59;;;;;;;16.83;13.57;;;1.50;99.90;;;;;;5100378;28;20052;-63
2022/12/04 11:28:33;;;;;;;14.65;12.48;;;1.50;99.90;;;;;;5095070;28;20113;-65
2022/12/04 11:31:14;;;;;;;15.48;11.68;;;1.50;99.90;;;;;;5095565;28;20043;-63
2022/12/04 11:33:44;;;;;;;13.70;10.80;;;1.50;99.90;;;;;;5100371;28;20048;-63
2022/12/04 11:36:22;;;;;;;14.35;12.82;;;1.50;99.90;;;;;;5101919;28;20052;-63
2022/12/04 11:38:52;;;;;;;19.98;12.60;;;1.50;99.90;;;;;;5098868;28;20058;-63
2022/12/04 11:41:28;;;;;;;17.35;12.82;;;1.50;99.90;;;;;;5096148;28;20060;-62
2022/12/04 11:43:56;;;;;;;16.23;12.93;;;1.50;99.90;;;;;;5101129;28;20050;-64
2022/12/04 11:46:29;;;;;;;16.60;12.07;;;1.50;99.90;;;;;;5100723;28;20071;-65
2022/12/04 11:48:56;;;;;;;16.90;13.45;;;1.50;99.90;;;;;;5099473;28;20186;-63
2022/12/04 11:52:01;;;;;;;16.73;12.43;;;1.50;99.90;;;;;;5093670;28;20062;-63
2022/12/04 11:54:54;;;;;;;20.88;12.77;;;1.50;99.90;;;;;;5063347;28;20070;-65
2022/12/04 11:57:44;;;;;;;16.38;13.40;;;1.50;99.90;;;;;;5092889;28;20052;-65
2022/12/04 12:00:21;;;;;;;14.23;12.07;;;1.50;99.90;;;;;;5098102;28;20056;-63
2022/12/04 12:03:09;;;;;;;14.77;11.73;;;1.50;99.90;;;;;;5100288;28;22518;-62
2022/12/04 12:05:49;;;;;;;16.27;11.65;;;1.50;99.90;;;;;;5099780;28;20125;-63
2022/12/04 12:08:27;;;;;;;17.05;12.55;;;1.50;99.90;;;;;;5099896;28;20046;-62
2022/12/04 12:11:03;;;;;;;16.55;12.80;;;1.50;99.90;;;;;;5097026;28;20044;-63
2022/12/04 12:13:54;;;;;;;15.77;12.52;;;1.50;99.90;;;;;;5098916;28;20123;-66
2022/12/04 12:16:54;;;;;;;14.05;11.25;;;1.50;99.90;;;;;;5097600;28;20047;-62
2022/12/04 12:19:24;;;;;;;17.08;11.57;;;1.50;99.90;;;;;;5043560;28;20492;-63
2022/12/04 12:21:54;;;;;;;11.02;8.38;;;1.50;99.90;;;;;;5095145;28;20150;-63
2022/12/04 12:24:38;;;;;;;16.60;12.82;;;1.50;99.90;;;;;;5099095;28;20550;-62
2022/12/04 12:27:14;;;;;;;17.20;12.07;;;1.50;99.90;;;;;;5094662;28;20386;-64
2022/12/04 12:30:02;;;;;;;17.52;11.88;;;1.50;99.90;;;;;;5100183;28;20131;-63
2022/12/04 12:33:07;;;;;;;16.88;13.68;;;1.50;99.90;;;;;;5082644;28;20043;-66
2022/12/04 12:35:54;;;;;;;16.80;12.20;;;1.50;99.90;;;;;;5074455;28;20126;-64
2022/12/04 12:38:43;;;;;;;17.13;13.35;;;1.50;99.90;;;;;;5099085;28;20052;-62
2022/12/04 12:41:19;;;;;;;18.85;12.27;;;1.40;99.90;;;;;;5098938;28;20193;-62
2022/12/04 12:44:25;;;;;;;16.65;11.77;;;1.50;99.90;;;;;;5071025;28;20121;-64
2022/12/04 12:47:04;;;;;;;18.52;12.90;;;1.50;99.90;;;;;;5020836;28;20045;-64
2022/12/04 12:49:44;;;;;;;16.95;12.60;;;1.50;99.90;;;;;;5021994;28;20045;-62
2022/12/04 12:52:42;;;;;;;15.05;12.05;;;1.50;99.90;;;;;;5074601;28;20438;-63
2022/12/04 12:55:18;;;;;;;20.85;13.43;;;1.40;99.90;;;;;;5092123;28;20176;-63
2022/12/04 12:58:20;;;;;;;26.38;17.42;;;1.40;99.90;;;;;;5094162;28;20494;-63
2022/12/04 13:01:04;;;;;;;20.98;13.77;;;1.40;99.90;;;;;;5098404;28;20066;-63
2022/12/04 13:03:46;;;;;;;17.60;12.95;;;1.40;99.90;;;;;;5094799;28;20749;-64
2022/12/04 13:06:21;;;;;;;19.00;12.90;;;1.40;99.90;;;;;;5085748;28;20039;-63
2022/12/04 13:09:08;;;;;;;18.65;13.38;;;1.50;99.90;;;;;;5099336;28;21632;-63
2022/12/04 13:11:36;;;;;;;17.88;13.52;;;1.50;99.90;;;;;;5098080;28;20040;-64
2022/12/04 13:14:04;;;;;;;21.15;13.00;;;1.50;99.90;;;;;;5101753;28;20058;-63
2022/12/04 13:16:48;;;;;;;16.20;13.20;;;1.50;99.90;;;;;;5098368;28;20058;-63
2022/12/04 13:19:42;;;;;;;20.63;13.98;;;1.50;99.90;;;;;;5098745;28;20086;-63